Time;durP1;ratioP1;P1;durP2;ratioP2;P2;SDS_P1;SDS_P2;PMS_P1;PMS_P2;Temp;Humidity;BMP_temperature;BMP_pressure;BME280_temperature;BME280_humidity;BME280_pressure;Samples;Min_cycle;Max_cycle;Signal;HPM_P1;HPM_P2
2023/10/03 00:02:05;;;;;;;25.50;15.33;;;22.20;99.90;;;;;;4992535;28;20603;-59
2023/10/03 00:04:35;;;;;;;23.67;15.97;;;22.20;99.90;;;;;;4992748;28;20465;-59
2023/10/03 00:07:02;;;;;;;20.83;15.27;;;22.20;99.90;;;;;;4992141;28;20498;-55
2023/10/03 00:09:29;;;;;;;18.83;14.60;;;22.20;99.90;;;;;;4993366;28;20549;-60
2023/10/03 00:11:56;;;;;;;19.50;15.83;;;22.20;99.90;;;;;;4994247;28;21330;-57
2023/10/03 00:14:22;;;;;;;18.60;14.77;;;22.20;99.90;;;;;;4993023;28;20482;-59
2023/10/03 00:16:50;;;;;;;22.20;16.10;;;22.10;99.90;;;;;;4992665;28;20467;-61
2023/10/03 00:19:16;;;;;;;20.00;14.97;;;22.20;99.90;;;;;;4994104;28;20913;-56
2023/10/03 00:21:44;;;;;;;23.47;14.33;;;22.10;99.90;;;;;;4994689;28;20470;-57
2023/10/03 00:24:11;;;;;;;19.40;14.27;;;22.20;99.90;;;;;;4991549;28;20478;-57
2023/10/03 00:26:39;;;;;;;18.50;15.87;;;22.10;99.90;;;;;;4991254;28;20573;-59
2023/10/03 00:29:09;;;;;;;22.67;15.57;;;22.10;99.90;;;;;;4994258;28;20490;-59
2023/10/03 00:31:38;;;;;;;18.13;13.80;;;22.20;99.90;;;;;;4992051;28;21057;-57
2023/10/03 00:34:05;;;;;;;20.63;14.93;;;22.10;99.90;;;;;;4992372;28;20478;-57
2023/10/03 00:36:32;;;;;;;20.57;15.13;;;22.20;99.90;;;;;;4994690;28;20459;-58
2023/10/03 00:39:00;;;;;;;24.23;14.97;;;22.10;99.90;;;;;;4994206;28;21202;-57
2023/10/03 00:41:29;;;;;;;18.97;15.20;;;22.10;99.90;;;;;;4995425;28;20455;-58
2023/10/03 00:43:59;;;;;;;20.53;15.50;;;22.10;99.90;;;;;;4994754;28;20466;-59
2023/10/03 00:46:27;;;;;;;16.43;13.50;;;22.10;99.90;;;;;;4992394;28;20458;-59
2023/10/03 00:48:54;;;;;;;19.60;13.80;;;22.10;99.90;;;;;;4993604;28;20466;-58
2023/10/03 00:51:22;;;;;;;17.90;13.90;;;22.10;99.90;;;;;;4993133;28;20471;-58
2023/10/03 00:53:55;;;;;;;19.53;14.80;;;22.00;99.90;;;;;;4994120;28;20589;-60
2023/10/03 00:56:23;;;;;;;13.87;12.30;;;22.10;99.90;;;;;;4993827;28;20466;-59
2023/10/03 00:58:51;;;;;;;20.00;14.70;;;22.00;99.90;;;;;;4996276;28;20501;-59
2023/10/03 01:01:19;;;;;;;19.50;14.97;;;22.10;99.90;;;;;;4994874;28;20466;-57
2023/10/03 01:03:47;;;;;;;18.10;13.80;;;22.10;99.90;;;;;;4991632;28;21054;-59
2023/10/03 01:06:15;;;;;;;18.03;14.33;;;22.20;99.90;;;;;;4994142;28;20459;-56
2023/10/03 01:08:46;;;;;;;16.10;13.53;;;22.00;99.90;;;;;;4991873;28;20570;-59
2023/10/03 01:11:16;;;;;;;18.57;14.83;;;22.10;99.90;;;;;;4990453;28;20909;-59
2023/10/03 01:13:47;;;;;;;17.57;13.80;;;22.10;99.90;;;;;;4994854;28;20478;-59
2023/10/03 01:16:14;;;;;;;19.90;14.23;;;22.10;99.90;;;;;;4991853;28;20549;-59
2023/10/03 01:18:41;;;;;;;17.20;14.13;;;22.00;99.90;;;;;;4991663;28;20474;-59
2023/10/03 01:21:11;;;;;;;18.50;13.67;;;22.00;99.90;;;;;;4995802;28;21072;-57
2023/10/03 01:23:40;;;;;;;21.73;14.50;;;22.10;99.90;;;;;;4993433;28;20463;-58
2023/10/03 01:26:09;;;;;;;20.03;14.50;;;22.00;99.90;;;;;;4994222;28;21129;-57
2023/10/03 01:28:36;;;;;;;17.67;14.27;;;22.00;99.90;;;;;;4993338;28;20568;-59
2023/10/03 01:31:03;;;;;;;18.47;14.07;;;22.00;99.90;;;;;;4993102;28;20898;-59
2023/10/03 01:33:32;;;;;;;19.00;15.57;;;22.00;99.90;;;;;;4992917;28;20553;-55
2023/10/03 01:36:01;;;;;;;17.77;14.50;;;22.00;99.90;;;;;;4993336;28;20462;-59
2023/10/03 01:38:27;;;;;;;19.63;13.77;;;22.00;99.90;;;;;;4993061;28;20539;-58
2023/10/03 01:40:57;;;;;;;16.53;12.80;;;22.10;99.90;;;;;;4991838;28;20505;-58
2023/10/03 01:43:24;;;;;;;15.50;12.57;;;22.00;99.90;;;;;;4991635;28;21441;-60
2023/10/03 01:45:52;;;;;;;19.27;14.53;;;22.10;99.90;;;;;;4992241;28;20469;-61
2023/10/03 01:48:18;;;;;;;18.47;13.90;;;22.00;99.90;;;;;;4991970;28;21144;-60
2023/10/03 01:50:45;;;;;;;17.73;13.23;;;22.00;99.90;;;;;;4991005;28;20473;-60
2023/10/03 01:53:12;;;;;;;16.97;14.40;;;22.10;99.90;;;;;;4994090;28;20505;-57
2023/10/03 01:55:39;;;;;;;17.10;13.60;;;22.10;99.90;;;;;;4991889;28;20486;-60
2023/10/03 01:58:07;;;;;;;15.27;12.40;;;22.00;99.90;;;;;;4993729;28;20484;-57
2023/10/03 02:00:35;;;;;;;15.07;12.60;;;22.00;99.90;;;;;;4990371;28;20461;-57
2023/10/03 02:03:05;;;;;;;17.30;14.77;;;22.00;99.90;;;;;;4991016;28;20474;-60
2023/10/03 02:05:33;;;;;;;17.77;13.57;;;22.00;99.90;;;;;;4992362;28;20469;-60
2023/10/03 02:08:04;;;;;;;17.47;12.70;;;22.00;99.90;;;;;;4992608;28;21043;-57
2023/10/03 02:10:32;;;;;;;16.50;12.10;;;22.00;99.90;;;;;;4992000;28;20458;-57
2023/10/03 02:12:59;;;;;;;16.50;13.60;;;22.00;99.90;;;;;;4992345;28;20764;-56
2023/10/03 02:15:28;;;;;;;15.90;12.30;;;22.00;99.90;;;;;;4993991;28;20480;-59
2023/10/03 02:17:57;;;;;;;17.43;13.10;;;22.00;99.90;;;;;;4993866;28;20540;-55
2023/10/03 02:20:25;;;;;;;17.47;13.87;;;22.00;99.90;;;;;;4995429;28;20466;-57
2023/10/03 02:22:55;;;;;;;15.63;13.13;;;22.00;99.90;;;;;;4996405;28;20466;-59
2023/10/03 02:25:27;;;;;;;14.77;12.10;;;22.00;99.90;;;;;;4993515;28;20462;-56
2023/10/03 02:27:55;;;;;;;17.17;13.63;;;22.00;99.90;;;;;;4996721;28;21101;-60
2023/10/03 02:30:23;;;;;;;15.70;12.30;;;22.00;99.90;;;;;;5004161;28;20467;-54
2023/10/03 02:33:23;;;;;;;14.83;12.00;;;22.00;99.90;;;;;;4996842;28;20465;-56
2023/10/03 02:35:50;;;;;;;16.57;12.77;;;22.00;99.90;;;;;;4999538;28;20586;-56
2023/10/03 02:38:24;;;;;;;17.20;11.77;;;22.00;99.90;;;;;;5003299;28;20470;-57
2023/10/03 02:40:51;;;;;;;15.67;13.00;;;22.00;99.90;;;;;;5002599;28;20922;-58
2023/10/03 02:43:18;;;;;;;15.17;11.27;;;22.00;99.90;;;;;;4998673;28;20466;-57
2023/10/03 02:45:46;;;;;;;15.77;11.70;;;22.00;99.90;;;;;;4996337;28;20455;-59
2023/10/03 02:48:19;;;;;;;13.90;12.40;;;22.00;99.90;;;;;;4995755;28;21098;-57
2023/10/03 02:50:48;;;;;;;13.90;11.97;;;22.00;99.90;;;;;;4998655;28;20461;-59
2023/10/03 02:53:17;;;;;;;16.30;12.93;;;21.90;99.90;;;;;;4999840;28;20601;-57
2023/10/03 02:55:43;;;;;;;16.07;12.43;;;22.10;99.90;;;;;;4998348;28;20601;-57
2023/10/03 02:58:13;;;;;;;17.10;11.87;;;22.00;99.90;;;;;;4996210;28;20549;-59
2023/10/03 03:00:40;;;;;;;14.13;11.07;;;22.00;99.90;;;;;;4997254;28;20462;-59
2023/10/03 03:03:09;;;;;;;14.77;13.23;;;22.00;99.90;;;;;;4997265;28;20450;-60
2023/10/03 03:05:38;;;;;;;16.60;13.23;;;22.00;99.90;;;;;;4997165;28;20841;-60
2023/10/03 03:08:21;;;;;;;12.57;10.90;;;22.00;99.90;;;;;;4999650;28;20463;-56
2023/10/03 03:10:51;;;;;;;15.50;11.93;;;22.00;99.90;;;;;;5000794;28;20462;-57
2023/10/03 03:13:19;;;;;;;14.00;10.63;;;22.00;99.90;;;;;;4998542;28;20866;-58
2023/10/03 03:15:51;;;;;;;16.07;12.00;;;22.00;99.90;;;;;;4999192;28;20484;-58
2023/10/03 03:18:19;;;;;;;12.93;10.97;;;22.00;99.90;;;;;;4999923;28;20481;-57
2023/10/03 03:20:53;;;;;;;16.13;12.43;;;21.90;99.90;;;;;;4999278;28;20593;-58
2023/10/03 03:23:20;;;;;;;13.10;11.70;;;21.90;99.90;;;;;;4997439;28;20558;-59
2023/10/03 03:25:49;;;;;;;13.90;11.50;;;22.20;99.90;;;;;;4997964;28;20471;-60
2023/10/03 03:28:23;;;;;;;13.80;11.60;;;22.00;99.90;;;;;;4998619;28;20468;-59
2023/10/03 03:30:56;;;;;;;12.23;10.90;;;22.00;99.90;;;;;;4997528;28;20497;-59
2023/10/03 03:33:27;;;;;;;12.13;10.50;;;22.00;99.90;;;;;;4997706;28;20847;-59
2023/10/03 03:35:55;;;;;;;14.60;11.40;;;22.00;99.90;;;;;;5002240;28;20465;-58
2023/10/03 03:38:23;;;;;;;13.27;11.87;;;21.90;99.90;;;;;;5002641;28;20556;-57
2023/10/03 03:40:55;;;;;;;12.47;11.17;;;21.90;99.90;;;;;;5001252;28;20466;-57
2023/10/03 03:43:23;;;;;;;13.07;10.50;;;22.00;99.90;;;;;;5003078;28;20467;-57
2023/10/03 03:45:51;;;;;;;14.00;11.30;;;21.90;99.90;;;;;;5002054;28;20466;-58
2023/10/03 03:48:19;;;;;;;11.97;10.47;;;22.00;99.90;;;;;;5002760;28;20468;-58
2023/10/03 03:50:46;;;;;;;12.83;11.17;;;21.90;99.90;;;;;;5001291;28;20935;-59
2023/10/03 03:53:14;;;;;;;11.73;10.30;;;21.90;99.90;;;;;;5001344;28;20454;-57
2023/10/03 03:55:41;;;;;;;13.37;10.60;;;22.00;99.90;;;;;;5000923;28;20477;-60
2023/10/03 03:58:14;;;;;;;13.53;10.77;;;21.90;99.90;;;;;;5002311;28;20458;-57
2023/10/03 04:00:47;;;;;;;12.20;9.73;;;21.80;99.90;;;;;;5000888;28;20459;-59
2023/10/03 04:03:14;;;;;;;13.20;11.27;;;22.00;99.90;;;;;;5002093;28;20494;-57
2023/10/03 04:05:41;;;;;;;12.40;11.07;;;21.90;99.90;;;;;;5001425;28;21519;-57
2023/10/03 04:08:08;;;;;;;12.63;10.43;;;21.90;99.90;;;;;;4999968;28;20464;-58
2023/10/03 04:10:37;;;;;;;11.20;10.10;;;22.00;99.90;;;;;;4999804;28;21148;-59
2023/10/03 04:13:07;;;;;;;11.40;9.83;;;21.90;99.90;;;;;;5000969;28;20851;-57
2023/10/03 04:15:34;;;;;;;13.10;10.80;;;21.90;99.90;;;;;;5000956;28;20469;-59
2023/10/03 04:18:01;;;;;;;14.20;11.10;;;21.90;99.90;;;;;;5000786;28;20453;-59
2023/10/03 04:20:30;;;;;;;14.47;12.03;;;21.90;99.90;;;;;;5000882;28;20462;-60
2023/10/03 04:22:58;;;;;;;14.20;11.17;;;21.90;99.90;;;;;;5002471;28;20701;-59
2023/10/03 04:25:26;;;;;;;12.10;10.83;;;21.90;99.90;;;;;;5001898;28;21465;-56
2023/10/03 04:27:55;;;;;;;11.67;10.47;;;22.00;99.90;;;;;;5002375;28;20486;-56
2023/10/03 04:30:25;;;;;;;13.60;10.77;;;21.90;99.90;;;;;;5001577;28;20459;-60
2023/10/03 04:32:52;;;;;;;15.10;10.80;;;21.90;99.90;;;;;;5000692;28;20451;-59
2023/10/03 04:35:20;;;;;;;11.40;9.60;;;21.90;99.90;;;;;;5000056;28;20770;-58
2023/10/03 04:37:49;;;;;;;12.20;10.20;;;21.90;99.90;;;;;;5000962;28;20462;-57
2023/10/03 04:40:21;;;;;;;13.53;11.03;;;22.00;99.90;;;;;;5001480;28;20499;-59
2023/10/03 04:42:49;;;;;;;12.00;9.97;;;21.90;99.90;;;;;;4999553;28;20462;-58
2023/10/03 04:45:19;;;;;;;11.77;10.20;;;21.90;99.90;;;;;;5001595;28;20474;-57
2023/10/03 04:47:47;;;;;;;10.93;9.30;;;21.90;99.90;;;;;;4998573;28;21176;-58
2023/10/03 04:50:17;;;;;;;11.43;10.03;;;21.90;99.90;;;;;;4999930;28;20458;-58
2023/10/03 04:52:47;;;;;;;12.40;9.73;;;21.90;99.90;;;;;;5001346;28;20736;-58
2023/10/03 04:55:16;;;;;;;12.10;10.00;;;21.90;99.90;;;;;;5001334;28;20538;-57
2023/10/03 04:57:43;;;;;;;12.17;9.90;;;21.90;99.90;;;;;;5001494;28;20450;-57
2023/10/03 05:00:11;;;;;;;11.17;9.67;;;21.90;99.90;;;;;;5004512;28;20462;-61
2023/10/03 05:02:42;;;;;;;13.33;10.20;;;21.90;99.90;;;;;;5004309;28;22671;-58
2023/10/03 05:05:10;;;;;;;13.77;9.53;;;21.90;99.90;;;;;;5002449;28;20871;-56
2023/10/03 05:07:36;;;;;;;11.00;9.23;;;21.90;99.90;;;;;;4997546;28;20467;-60
2023/10/03 05:10:04;;;;;;;12.30;9.97;;;21.90;99.90;;;;;;4999815;28;21307;-54
2023/10/03 05:12:31;;;;;;;13.60;11.23;;;21.80;99.90;;;;;;5000398;28;20455;-59
2023/10/03 05:14:58;;;;;;;12.37;10.30;;;21.80;99.90;;;;;;4998707;28;20486;-54
2023/10/03 05:17:26;;;;;;;11.10;9.57;;;21.90;99.90;;;;;;4996848;28;20462;-58
2023/10/03 05:19:58;;;;;;;12.73;10.00;;;21.80;99.90;;;;;;5000694;28;20490;-57
2023/10/03 05:22:25;;;;;;;14.10;10.73;;;21.90;99.90;;;;;;5002279;28;21175;-56
2023/10/03 05:24:52;;;;;;;14.73;9.93;;;21.80;99.90;;;;;;5001938;28;20867;-58
2023/10/03 05:27:19;;;;;;;11.07;8.43;;;21.80;99.90;;;;;;5003024;28;22090;-56
2023/10/03 05:29:46;;;;;;;10.13;8.80;;;21.80;99.90;;;;;;5002414;28;20458;-59
2023/10/03 05:32:14;;;;;;;12.27;10.50;;;21.90;99.90;;;;;;4999845;28;20462;-58
2023/10/03 05:34:40;;;;;;;10.30;8.90;;;21.90;99.90;;;;;;4999714;28;20470;-58
2023/10/03 05:37:08;;;;;;;11.23;10.03;;;21.90;99.90;;;;;;5000342;28;20459;-56
2023/10/03 05:39:35;;;;;;;10.00;9.00;;;21.80;99.90;;;;;;5000769;28;20490;-58
2023/10/03 05:42:02;;;;;;;10.63;8.73;;;21.90;99.90;;;;;;5000276;28;20461;-58
2023/10/03 05:44:28;;;;;;;11.23;9.40;;;21.80;99.90;;;;;;4999481;28;20469;-58
2023/10/03 05:46:55;;;;;;;11.50;8.53;;;21.80;99.90;;;;;;5001070;28;21163;-56
2023/10/03 05:49:24;;;;;;;10.53;9.43;;;21.80;99.90;;;;;;4999778;28;20479;-58
2023/10/03 05:51:55;;;;;;;11.70;9.43;;;21.80;99.90;;;;;;5001902;28;20494;-60
2023/10/03 05:54:25;;;;;;;10.70;9.60;;;21.80;99.90;;;;;;4999423;28;20569;-58
2023/10/03 05:56:52;;;;;;;12.93;10.17;;;21.80;99.90;;;;;;4999020;28;20595;-58
2023/10/03 05:59:20;;;;;;;12.33;9.67;;;21.70;99.90;;;;;;5000685;28;20498;-53
2023/10/03 06:01:47;;;;;;;10.93;9.80;;;21.80;99.90;;;;;;4999394;28;20461;-53
2023/10/03 06:04:14;;;;;;;11.80;9.37;;;21.90;99.90;;;;;;4999088;28;21036;-57
2023/10/03 06:06:40;;;;;;;13.83;10.43;;;21.80;99.90;;;;;;4998754;28;20471;-58
2023/10/03 06:09:10;;;;;;;12.10;9.40;;;21.90;99.90;;;;;;5001600;28;21874;-54
2023/10/03 06:11:38;;;;;;;12.80;10.10;;;21.80;99.90;;;;;;4997602;28;22263;-55
2023/10/03 06:14:05;;;;;;;12.60;9.97;;;21.80;99.90;;;;;;5001266;28;20461;-58
2023/10/03 06:16:32;;;;;;;11.70;9.47;;;21.90;99.90;;;;;;4999460;28;20478;-55
2023/10/03 06:18:59;;;;;;;9.97;7.83;;;21.80;99.90;;;;;;4999161;28;21067;-58
2023/10/03 06:21:26;;;;;;;11.10;9.40;;;21.80;99.90;;;;;;5000365;28;20469;-59
2023/10/03 06:23:53;;;;;;;10.40;8.70;;;21.80;99.90;;;;;;5006978;28;21434;-54
2023/10/03 06:26:47;;;;;;;12.00;10.10;;;21.80;99.90;;;;;;4999470;28;21189;-52
2023/10/03 06:29:15;;;;;;;11.33;8.60;;;21.80;99.90;;;;;;4997088;28;21051;-56
2023/10/03 06:31:42;;;;;;;9.33;8.40;;;21.80;99.90;;;;;;4998334;28;20621;-57
2023/10/03 06:34:08;;;;;;;11.70;9.77;;;21.80;99.90;;;;;;4996792;28;20959;-57
2023/10/03 06:36:35;;;;;;;10.87;9.60;;;21.80;99.90;;;;;;4999339;28;20478;-56
2023/10/03 06:39:04;;;;;;;12.20;8.80;;;21.80;99.90;;;;;;4995394;28;21300;-59
2023/10/03 06:41:31;;;;;;;11.20;9.83;;;21.80;99.90;;;;;;4995362;28;20463;-57
2023/10/03 06:44:00;;;;;;;11.30;9.23;;;21.80;99.90;;;;;;4999097;28;20592;-55
2023/10/03 06:46:26;;;;;;;12.00;9.67;;;21.80;99.90;;;;;;4998161;28;20958;-55
2023/10/03 06:48:54;;;;;;;9.57;8.43;;;21.80;99.90;;;;;;4996907;28;20462;-57
2023/10/03 06:51:21;;;;;;;9.53;8.53;;;21.80;99.90;;;;;;4999920;28;21188;-57
2023/10/03 06:53:48;;;;;;;10.90;8.60;;;21.80;99.90;;;;;;4999706;28;20537;-59
2023/10/03 06:56:15;;;;;;;10.50;9.40;;;21.80;99.90;;;;;;4993792;28;21278;-54
2023/10/03 06:58:41;;;;;;;13.67;9.70;;;21.80;99.90;;;;;;4997863;28;20803;-56
2023/10/03 07:01:11;;;;;;;11.83;9.70;;;21.80;99.90;;;;;;4999414;28;20463;-57
2023/10/03 07:03:40;;;;;;;11.40;9.50;;;21.80;99.90;;;;;;4998948;28;20942;-54
2023/10/03 07:06:06;;;;;;;10.67;8.70;;;21.80;99.90;;;;;;4999317;28;20552;-53
2023/10/03 07:08:33;;;;;;;10.07;8.90;;;21.80;99.90;;;;;;5000570;28;20958;-55
2023/10/03 07:11:01;;;;;;;11.13;10.03;;;21.80;99.90;;;;;;5004068;28;20459;-56
2023/10/03 07:13:27;;;;;;;10.50;8.70;;;21.80;99.90;;;;;;5003708;28;20489;-53
2023/10/03 07:15:57;;;;;;;10.17;9.07;;;21.80;99.90;;;;;;4999703;28;20473;-56
2023/10/03 07:18:25;;;;;;;11.97;9.77;;;21.80;99.90;;;;;;4999217;28;21036;-58
2023/10/03 07:20:53;;;;;;;11.93;9.67;;;21.80;99.90;;;;;;5001019;28;20451;-56
2023/10/03 07:23:23;;;;;;;12.83;9.67;;;21.80;99.90;;;;;;5003279;28;21954;-53
2023/10/03 07:25:50;;;;;;;12.10;9.93;;;21.80;99.90;;;;;;5002399;28;20602;-55
2023/10/03 07:28:16;;;;;;;11.20;8.80;;;21.80;99.90;;;;;;5005529;28;20461;-59
2023/10/03 07:30:43;;;;;;;12.30;9.57;;;21.80;99.90;;;;;;5004339;28;20934;-59
2023/10/03 07:33:11;;;;;;;11.00;8.70;;;21.80;99.90;;;;;;5000501;28;20581;-52
2023/10/03 07:35:41;;;;;;;13.90;9.63;;;21.80;99.90;;;;;;5000495;28;20818;-53
2023/10/03 07:38:10;;;;;;;12.97;7.77;;;21.80;99.90;;;;;;5002509;28;20535;-53
2023/10/03 07:40:38;;;;;;;15.93;8.80;;;21.90;99.90;;;;;;4999085;28;20463;-55
2023/10/03 07:43:09;;;;;;;14.90;8.10;;;21.80;99.90;;;;;;5004496;28;20529;-53
2023/10/03 07:45:37;;;;;;;12.53;8.10;;;21.80;99.90;;;;;;5003005;28;20494;-52
2023/10/03 07:48:05;;;;;;;10.63;8.40;;;21.80;99.90;;;;;;5000371;28;20463;-53
2023/10/03 07:50:32;;;;;;;11.37;8.50;;;21.80;99.90;;;;;;5002980;28;20477;-50
2023/10/03 07:53:00;;;;;;;12.93;9.13;;;21.80;99.90;;;;;;5004894;28;20787;-57
2023/10/03 07:55:27;;;;;;;11.77;7.40;;;21.80;99.90;;;;;;5003634;28;21070;-57
2023/10/03 07:57:55;;;;;;;11.00;7.80;;;21.80;99.90;;;;;;5000066;28;20471;-53
2023/10/03 08:00:26;;;;;;;12.03;7.73;;;21.80;99.90;;;;;;5000627;28;21076;-55
2023/10/03 08:02:53;;;;;;;11.30;7.73;;;21.80;99.90;;;;;;5003528;28;20469;-50
2023/10/03 08:05:20;;;;;;;12.90;7.77;;;21.80;99.90;;;;;;5002617;28;20465;-56
2023/10/03 08:07:48;;;;;;;15.70;8.53;;;21.80;99.90;;;;;;5004501;28;20498;-51
2023/10/03 08:10:17;;;;;;;9.83;7.20;;;21.80;99.90;;;;;;5001834;28;20509;-53
2023/10/03 08:12:47;;;;;;;8.47;6.70;;;21.80;99.90;;;;;;5000644;28;21244;-57
2023/10/03 08:15:20;;;;;;;11.17;7.30;;;21.80;99.90;;;;;;5000382;28;20560;-57
2023/10/03 08:17:49;;;;;;;8.43;7.50;;;21.80;99.90;;;;;;4998821;28;20957;-55
2023/10/03 08:20:18;;;;;;;9.17;5.90;;;21.80;99.90;;;;;;5002042;28;20525;-60
2023/10/03 08:22:50;;;;;;;10.60;6.93;;;21.80;99.90;;;;;;5004904;28;20963;-52
2023/10/03 08:25:19;;;;;;;10.13;7.20;;;21.80;99.90;;;;;;5002649;28;20458;-53
2023/10/03 08:27:47;;;;;;;10.33;7.50;;;21.80;99.90;;;;;;5001870;28;20591;-56
2023/10/03 08:30:25;;;;;;;8.83;6.60;;;21.80;99.90;;;;;;5002659;28;20470;-56
2023/10/03 08:32:54;;;;;;;10.40;6.43;;;21.80;99.90;;;;;;5000748;28;21332;-56
2023/10/03 08:35:34;;;;;;;8.87;6.10;;;21.80;99.90;;;;;;5002638;28;20466;-54
2023/10/03 08:38:07;;;;;;;10.30;6.50;;;21.80;99.90;;;;;;5001346;28;20588;-56
2023/10/03 08:40:40;;;;;;;10.30;6.00;;;21.80;99.90;;;;;;5002341;28;20485;-52
2023/10/03 08:43:09;;;;;;;7.80;5.30;;;21.80;99.90;;;;;;4999505;28;20460;-50
2023/10/03 08:45:40;;;;;;;7.33;4.83;;;21.80;99.90;;;;;;4999535;28;20464;-60
2023/10/03 08:48:08;;;;;;;9.47;6.60;;;21.80;99.90;;;;;;5000082;28;20463;-57
2023/10/03 08:50:46;;;;;;;10.33;4.80;;;21.80;99.90;;;;;;5002444;28;21043;-55
2023/10/03 08:53:15;;;;;;;6.53;5.50;;;21.80;99.90;;;;;;5000481;28;20455;-53
2023/10/03 08:55:46;;;;;;;6.97;5.80;;;21.80;99.90;;;;;;5000931;28;20469;-55
2023/10/03 08:58:14;;;;;;;8.83;5.73;;;21.80;99.90;;;;;;5000647;28;20706;-50
2023/10/03 09:00:44;;;;;;;9.30;4.70;;;21.80;99.90;;;;;;5001969;28;20572;-52
2023/10/03 09:03:13;;;;;;;8.07;5.27;;;21.80;99.90;;;;;;5001833;28;20904;-58
2023/10/03 09:05:40;;;;;;;7.30;5.50;;;21.80;99.90;;;;;;5002033;28;20462;-51
2023/10/03 09:08:09;;;;;;;8.10;4.67;;;21.80;99.90;;;;;;5000342;28;20498;-52
2023/10/03 09:10:42;;;;;;;4.20;3.80;;;21.90;99.90;;;;;;5002440;28;20494;-56
2023/10/03 09:13:23;;;;;;;6.90;5.23;;;21.80;99.90;;;;;;5001890;28;20451;-56
2023/10/03 09:15:50;;;;;;;9.30;5.23;;;21.80;99.90;;;;;;5001788;28;20767;-51
2023/10/03 09:18:21;;;;;;;7.63;6.47;;;21.80;99.90;;;;;;5001255;28;22186;-52
2023/10/03 09:20:49;;;;;;;10.40;5.70;;;21.80;99.90;;;;;;5002892;28;20451;-57
2023/10/03 09:23:17;;;;;;;6.60;4.57;;;21.80;99.90;;;;;;5004856;28;20461;-55
2023/10/03 09:25:52;;;;;;;6.50;5.27;;;21.80;99.90;;;;;;5000523;28;20874;-50
2023/10/03 09:28:27;;;;;;;7.57;4.60;;;21.70;99.90;;;;;;5006801;28;20795;-56
2023/10/03 09:30:56;;;;;;;6.20;4.80;;;21.80;99.90;;;;;;5001401;28;20601;-54
2023/10/03 09:33:24;;;;;;;6.47;4.90;;;21.80;99.90;;;;;;5002169;28;20473;-53
2023/10/03 09:35:57;;;;;;;4.63;4.17;;;21.80;99.90;;;;;;4999763;28;20891;-52
2023/10/03 09:38:42;;;;;;;7.00;4.70;;;21.80;99.90;;;;;;5001982;28;20820;-53
2023/10/03 09:41:16;;;;;;;7.10;4.47;;;21.80;99.90;;;;;;4997508;28;20463;-51
2023/10/03 09:43:49;;;;;;;5.97;4.83;;;21.80;99.90;;;;;;4994144;28;20459;-55
2023/10/03 09:46:23;;;;;;;6.90;4.60;;;21.80;99.90;;;;;;4998290;28;20546;-53
2023/10/03 09:48:54;;;;;;;5.63;4.43;;;21.80;99.90;;;;;;4998952;28;20864;-56
2023/10/03 09:51:36;;;;;;;5.77;4.17;;;21.80;99.90;;;;;;4997090;28;20546;-55
2023/10/03 09:54:06;;;;;;;6.53;4.70;;;21.90;99.90;;;;;;4997711;28;20454;-57
2023/10/03 09:56:36;;;;;;;5.57;4.47;;;21.80;99.90;;;;;;4993087;28;20732;-51
2023/10/03 09:59:05;;;;;;;7.03;4.87;;;21.80;99.90;;;;;;4998367;28;20553;-56
2023/10/03 10:01:34;;;;;;;5.17;4.60;;;21.80;99.90;;;;;;4996799;28;20458;-56
2023/10/03 10:04:07;;;;;;;7.03;4.60;;;21.80;99.90;;;;;;4993871;28;21316;-53
2023/10/03 10:06:41;;;;;;;6.40;5.30;;;21.90;99.90;;;;;;4995879;28;20467;-52
2023/10/03 10:09:14;;;;;;;6.30;4.83;;;21.80;99.90;;;;;;4994491;28;20458;-54
2023/10/03 10:12:19;;;;;;;9.40;4.77;;;21.90;99.90;;;;;;4992880;28;20467;-49
2023/10/03 10:15:14;;;;;;;7.73;4.40;;;21.80;99.90;;;;;;4993805;28;20462;-50
2023/10/03 10:17:45;;;;;;;4.93;4.37;;;21.80;99.90;;;;;;4997862;28;21163;-57
2023/10/03 10:20:13;;;;;;;5.43;4.70;;;21.80;99.90;;;;;;4996640;28;21981;-52
2023/10/03 10:23:21;;;;;;;6.10;4.40;;;21.80;99.90;;;;;;4996258;28;20458;-54
2023/10/03 10:25:56;;;;;;;7.17;5.10;;;21.80;99.90;;;;;;4992113;28;21514;-52
2023/10/03 10:28:27;;;;;;;6.30;4.73;;;21.80;99.90;;;;;;4995091;28;20518;-51
2023/10/03 10:31:21;;;;;;;7.10;5.00;;;21.80;99.90;;;;;;4998899;28;20450;-57
2023/10/03 10:33:49;;;;;;;5.80;4.97;;;21.80;99.90;;;;;;4999083;28;20509;-53
2023/10/03 10:36:18;;;;;;;6.53;4.43;;;21.80;99.90;;;;;;5000289;28;20473;-55
2023/10/03 10:38:55;;;;;;;5.97;5.33;;;21.90;99.90;;;;;;4998905;28;21250;-53
2023/10/03 10:41:26;;;;;;;4.97;4.20;;;21.80;99.90;;;;;;4994211;28;20459;-51
2023/10/03 10:44:09;;;;;;;5.93;4.53;;;21.80;99.90;;;;;;4992711;28;20465;-52
2023/10/03 10:46:39;;;;;;;6.00;4.50;;;21.90;99.90;;;;;;4992595;28;20619;-59
2023/10/03 10:49:27;;;;;;;5.73;4.43;;;21.80;99.90;;;;;;4995639;28;20470;-63
2023/10/03 10:51:57;;;;;;;5.83;4.80;;;21.80;99.90;;;;;;4998323;28;21076;-61
2023/10/03 10:54:25;;;;;;;4.43;4.00;;;21.90;99.90;;;;;;4998151;28;20467;-60
2023/10/03 10:56:59;;;;;;;4.37;3.47;;;21.90;99.90;;;;;;4997063;28;20463;-59
2023/10/03 10:59:27;;;;;;;6.37;5.00;;;21.80;99.90;;;;;;4999233;28;20458;-60
2023/10/03 11:01:57;;;;;;;7.37;3.90;;;21.90;99.90;;;;;;4994822;28;20466;-62
2023/10/03 11:04:24;;;;;;;5.43;4.43;;;21.90;99.90;;;;;;4992820;28;20455;-58
2023/10/03 11:06:53;;;;;;;4.77;4.20;;;21.90;99.90;;;;;;4999061;28;20465;-64
2023/10/03 11:09:20;;;;;;;6.30;5.07;;;21.90;99.90;;;;;;4996224;28;20583;-60
2023/10/03 11:11:47;;;;;;;4.63;4.07;;;21.90;99.90;;;;;;4998683;28;20466;-61
2023/10/03 11:14:25;;;;;;;5.00;4.10;;;21.90;99.90;;;;;;4998407;28;22091;-61
2023/10/03 11:16:52;;;;;;;5.90;4.20;;;22.00;99.90;;;;;;4999220;28;20482;-65
2023/10/03 11:19:20;;;;;;;4.70;4.20;;;22.00;99.90;;;;;;4998494;28;20470;-67
2023/10/03 11:21:48;;;;;;;5.37;4.80;;;22.00;99.90;;;;;;4999626;28;20474;-62
2023/10/03 11:24:17;;;;;;;5.13;4.10;;;22.00;99.90;;;;;;5000062;28;21260;-61
2023/10/03 11:26:51;;;;;;;6.33;4.83;;;22.10;99.90;;;;;;4999481;28;20466;-63
2023/10/03 11:29:46;;;;;;;5.80;4.70;;;22.10;99.90;;;;;;5001862;28;20470;-60
2023/10/03 11:32:24;;;;;;;4.97;4.47;;;22.10;99.90;;;;;;4961531;28;20456;-67
2023/10/03 11:34:53;;;;;;;5.33;4.70;;;22.10;99.90;;;;;;4997906;28;21220;-61
2023/10/03 11:37:45;;;;;;;7.77;4.83;;;22.10;99.90;;;;;;4997236;28;20495;-60
2023/10/03 11:40:15;;;;;;;6.10;4.27;;;22.10;99.90;;;;;;4987470;28;20951;-58
2023/10/03 11:43:02;;;;;;;5.70;4.10;;;22.20;99.90;;;;;;5000731;28;20462;-61
2023/10/03 11:45:29;;;;;;;6.73;4.20;;;22.20;99.90;;;;;;4997074;28;20458;-60
2023/10/03 11:48:06;;;;;;;5.00;4.50;;;22.20;99.90;;;;;;4998936;28;20466;-62
2023/10/03 11:50:35;;;;;;;5.33;4.33;;;22.20;99.90;;;;;;4998284;28;20458;-61
2023/10/03 11:53:01;;;;;;;4.63;4.23;;;22.20;99.90;;;;;;4997086;28;20466;-61
2023/10/03 11:55:31;;;;;;;5.90;4.17;;;22.30;99.90;;;;;;4999388;28;20462;-60
2023/10/03 11:57:59;;;;;;;5.40;4.73;;;22.30;99.90;;;;;;4999817;28;20482;-62
2023/10/03 12:00:26;;;;;;;5.23;4.73;;;22.30;99.90;;;;;;4996990;28;20512;-58
2023/10/03 12:02:53;;;;;;;6.73;4.93;;;22.30;99.90;;;;;;4993235;28;20455;-60
2023/10/03 12:05:21;;;;;;;4.90;4.07;;;22.30;99.90;;;;;;5000251;28;20479;-59
2023/10/03 12:07:50;;;;;;;5.57;4.13;;;22.40;99.90;;;;;;5000478;28;21102;-61
2023/10/03 12:10:18;;;;;;;5.00;4.50;;;22.30;99.90;;;;;;4995786;28;20494;-60
2023/10/03 12:12:45;;;;;;;6.30;4.63;;;22.40;99.90;;;;;;4994980;28;20458;-55
2023/10/03 12:15:13;;;;;;;7.50;4.60;;;22.40;99.90;;;;;;4994253;28;20626;-62
2023/10/03 12:17:41;;;;;;;4.30;3.90;;;22.40;99.90;;;;;;4999976;28;20619;-63
2023/10/03 12:20:11;;;;;;;5.20;3.83;;;22.40;99.90;;;;;;5001169;28;20468;-64
2023/10/03 12:22:41;;;;;;;6.00;4.37;;;22.40;99.90;;;;;;5001035;28;20454;-62
2023/10/03 12:25:11;;;;;;;5.10;4.27;;;22.40;99.90;;;;;;5000352;28;20477;-62
2023/10/03 12:27:38;;;;;;;4.07;3.70;;;22.50;99.90;;;;;;4998117;28;20475;-59
2023/10/03 12:30:10;;;;;;;4.43;3.90;;;22.50;99.90;;;;;;5001479;28;20472;-58
2023/10/03 12:32:38;;;;;;;4.60;4.13;;;22.50;99.90;;;;;;4999175;28;20604;-62
2023/10/03 12:35:06;;;;;;;4.40;4.00;;;22.60;99.90;;;;;;4997735;28;20929;-59
2023/10/03 12:37:34;;;;;;;6.40;4.53;;;22.60;99.90;;;;;;5000231;28;20646;-56
2023/10/03 12:40:04;;;;;;;8.07;4.33;;;22.70;99.90;;;;;;4999711;28;20732;-59
2023/10/03 12:42:32;;;;;;;5.57;3.70;;;22.70;99.90;;;;;;4998506;28;20521;-53
2023/10/03 12:45:00;;;;;;;5.00;4.50;;;22.70;99.90;;;;;;4999877;28;20574;-62
2023/10/03 12:47:27;;;;;;;4.77;4.00;;;22.80;99.90;;;;;;4997779;28;20941;-63
2023/10/03 12:49:54;;;;;;;3.67;3.37;;;22.80;99.90;;;;;;5001054;28;21851;-60